Time;durP1;ratioP1;P1;durP2;ratioP2;P2;SDS_P1;SDS_P2;PMS_P1;PMS_P2;Temp;Humidity;BMP_temperature;BMP_pressure;BME280_temperature;BME280_humidity;BME280_pressure;Samples;Min_cycle;Max_cycle;Signal;HPM_P1;HPM_P2
2022/11/17 00:04:15;;;;;;;2.67;1.40;;;;;;;-0.52;98.23;101121.81;10593938;28;20056;-72
2022/11/17 00:09:18;;;;;;;1.90;1.05;;;;;;;-0.53;97.76;101114.75;10551993;28;20044;-73
2022/11/17 00:14:35;;;;;;;1.10;1.00;;;;;;;-0.52;97.74;101111.91;10610859;28;20039;-72
2022/11/17 00:24:58;;;;;;;2.67;0.98;;;;;;;-0.47;97.52;101114.81;10588226;28;20517;-73
2022/11/17 00:30:00;;;;;;;2.10;1.13;;;;;;;-0.44;97.15;101113.59;10599790;28;20044;-73
2022/11/17 00:35:04;;;;;;;1.10;0.80;;;;;;;-0.41;97.34;101116.72;10601536;28;20071;-73
2022/11/17 00:40:07;;;;;;;3.20;1.33;;;;;;;-0.40;96.92;101104.91;10610744;27;20048;-72
2022/11/17 00:45:10;;;;;;;1.35;0.90;;;;;;;-0.37;97.10;101098.28;10577773;28;20501;-73
2022/11/17 00:50:12;;;;;;;2.70;0.85;;;;;;;-0.33;96.56;101097.72;10578974;28;20032;-73
2022/11/17 00:55:14;;;;;;;0.90;0.77;;;;;;;-0.31;96.48;101086.72;10585502;27;20047;-76
2022/11/17 01:00:16;;;;;;;1.30;1.00;;;;;;;-0.30;96.10;101080.28;10603098;28;20039;-72
2022/11/17 01:05:18;;;;;;;2.53;1.00;;;;;;;-0.29;96.22;101084.66;10615948;27;20414;-73
2022/11/17 01:10:21;;;;;;;3.03;1.00;;;;;;;-0.26;95.52;101075.34;10575834;28;20538;-73
2022/11/17 01:15:23;;;;;;;1.67;1.10;;;;;;;-0.25;95.75;101074.31;10584737;27;20047;-73
2022/11/17 01:20:26;;;;;;;1.23;0.95;;;;;;;-0.20;95.77;101061.03;10620473;27;20050;-73
2022/11/17 01:25:28;;;;;;;1.35;1.00;;;;;;;-0.20;95.39;101050.25;10603284;28;20047;-72
2022/11/17 01:30:30;;;;;;;1.77;1.10;;;;;;;-0.19;95.28;101046.53;10593434;28;20055;-72
2022/11/17 01:35:33;;;;;;;2.97;1.25;;;;;;;-0.18;95.04;101042.78;10606946;27;20039;-73
2022/11/17 01:40:35;;;;;;;2.03;1.20;;;;;;;-0.18;95.33;101032.00;10617518;28;20043;-73
2022/11/17 01:45:37;;;;;;;1.17;0.85;;;;;;;-0.14;94.95;101026.03;10582420;28;20044;-73
2022/11/17 01:50:42;;;;;;;0.95;0.80;;;;;;;-0.13;95.44;101022.28;10549426;28;20490;-72
2022/11/17 01:55:52;;;;;;;1.45;1.23;;;;;;;-0.12;94.97;101020.44;10539021;28;20036;-73
2022/11/17 02:00:54;;;;;;;2.15;1.27;;;;;;;-0.13;95.10;101003.41;10585146;28;20043;-72
2022/11/17 02:06:06;;;;;;;2.53;1.00;;;;;;;-0.08;94.64;101013.59;10587098;28;20051;-72
2022/11/17 02:11:11;;;;;;;0.90;0.68;;;;;;;-0.10;94.93;101005.69;10598600;28;20039;-72
2022/11/17 02:16:15;;;;;;;1.00;0.70;;;;;;;-0.09;94.47;101001.13;10581759;28;20047;-72
2022/11/17 02:21:39;;;;;;;1.00;0.90;;;;;;;-0.09;94.09;100995.75;10609943;28;20040;-72
2022/11/17 02:26:53;;;;;;;1.00;0.60;;;;;;;-0.08;94.19;100983.91;10587028;28;20047;-72
2022/11/17 02:32:04;;;;;;;1.77;0.80;;;;;;;-0.08;94.13;100983.91;10600054;27;20047;-73
2022/11/17 02:37:15;;;;;;;1.10;0.70;;;;;;;-0.07;94.10;100990.97;10603181;28;20539;-73
2022/11/17 02:42:17;;;;;;;2.60;0.90;;;;;;;-0.07;93.90;100994.50;10565046;28;20038;-73
2022/11/17 02:47:26;;;;;;;1.02;0.73;;;;;;;-0.09;93.89;100993.88;10585499;28;20051;-73
2022/11/17 02:52:29;;;;;;;1.67;1.13;;;;;;;-0.09;94.32;100988.47;10613406;28;20413;-73
2022/11/17 02:57:33;;;;;;;0.95;0.80;;;;;;;-0.07;94.54;100993.66;10570133;28;20043;-73
2022/11/17 03:02:44;;;;;;;1.08;0.80;;;;;;;-0.06;94.06;100998.84;10602378;28;20048;-73
2022/11/17 03:08:12;;;;;;;1.48;1.00;;;;;;;-0.04;94.41;100995.97;10614717;28;20051;-72
2022/11/17 03:13:38;;;;;;;2.83;0.80;;;;;;;-0.04;94.65;100985.16;10619338;27;20048;-72
2022/11/17 03:18:51;;;;;;;1.98;0.90;;;;;;;-0.03;94.52;100978.72;10612870;27;20032;-73
2022/11/17 03:24:15;;;;;;;1.77;0.77;;;;;;;0.05;94.57;100966.94;10574413;28;20051;-73
2022/11/17 03:29:21;;;;;;;0.70;0.68;;;;;;;0.05;94.52;100967.78;10553504;28;20040;-73
2022/11/17 03:34:32;;;;;;;2.47;0.80;;;;;;;0.00;95.26;100964.88;10581516;28;20627;-72
2022/11/17 03:39:40;;;;;;;3.35;0.88;;;;;;;-0.03;95.75;100963.38;10591965;28;20036;-73
2022/11/17 03:44:48;;;;;;;1.48;0.95;;;;;;;-0.07;96.05;100955.91;10615636;28;20421;-72
2022/11/17 03:49:56;;;;;;;1.50;1.10;;;;;;;-0.08;96.17;100956.94;10604185;28;20039;-73
2022/11/17 03:54:59;;;;;;;1.08;0.90;;;;;;;-0.08;97.01;100952.38;10618580;28;20036;-73
2022/11/17 04:00:10;;;;;;;1.05;0.90;;;;;;;-0.09;97.75;100953.41;10599322;27;20027;-73
2022/11/17 04:05:16;;;;;;;1.00;0.90;;;;;;;-0.08;98.19;100948.84;10595746;28;20051;-74
2022/11/17 04:10:24;;;;;;;0.98;0.70;;;;;;;-0.09;98.68;100945.31;10620425;28;20055;-73
2022/11/17 04:20:55;;;;;;;1.70;1.00;;;;;;;-0.06;99.03;100946.78;10586985;28;20031;-74
2022/11/17 04:31:26;;;;;;;0.50;0.40;;;;;;;-0.03;99.55;100946.38;10580960;28;20036;-75
2022/11/17 04:36:43;;;;;;;0.63;0.40;;;;;;;-0.06;99.68;100950.31;10581871;28;20054;-73
2022/11/17 04:41:56;;;;;;;0.80;0.80;;;;;;;-0.06;99.57;100946.78;10572284;28;20047;-74
2022/11/17 04:47:00;;;;;;;0.88;0.70;;;;;;;-0.06;99.98;100941.38;10589103;28;21372;-74
2022/11/17 04:52:03;;;;;;;1.35;0.80;;;;;;;-0.04;100.00;100944.69;10603212;28;20040;-75
2022/11/17 04:57:05;;;;;;;3.60;0.60;;;;;;;-0.02;100.00;100934.53;10586968;28;20379;-74
2022/11/17 05:02:07;;;;;;;0.38;0.38;;;;;;;-0.01;100.00;100930.81;10583634;28;20394;-74
2022/11/17 05:07:10;;;;;;;2.13;0.88;;;;;;;-0.02;100.00;100931.84;10606305;28;20043;-73
2022/11/17 05:17:33;;;;;;;1.38;1.00;;;;;;;0.02;100.00;100930.41;10582513;28;20042;-75
2022/11/17 05:27:56;;;;;;;2.13;1.00;;;;;;;0.00;100.00;100935.19;10615632;28;20505;-74
2022/11/17 05:32:58;;;;;;;0.85;0.70;;;;;;;-0.03;100.00;100933.72;10566790;28;20402;-73
2022/11/17 05:38:01;;;;;;;1.25;1.00;;;;;;;-0.04;100.00;100942.00;10564333;28;20043;-73
2022/11/17 05:43:03;;;;;;;1.08;0.77;;;;;;;-0.04;100.00;100950.94;10614586;28;20051;-73
2022/11/17 05:48:05;;;;;;;0.52;0.47;;;;;;;-0.04;100.00;100956.31;10602779;27;20051;-73
2022/11/17 05:53:08;;;;;;;1.17;0.80;;;;;;;-0.10;100.00;100964.41;10558463;28;20437;-73
2022/11/17 05:58:16;;;;;;;3.78;1.40;;;;;;;-0.15;100.00;100961.50;10573293;28;20032;-73
2022/11/17 06:03:22;;;;;;;6.17;1.23;;;;;;;-0.17;100.00;100964.41;10592812;28;20040;-74
2022/11/17 06:08:25;;;;;;;2.92;1.42;;;;;;;-0.18;100.00;100967.28;10573862;28;20485;-74
2022/11/17 06:13:28;;;;;;;5.13;1.60;;;;;;;-0.12;100.00;100970.00;10588690;27;20040;-74
2022/11/17 06:18:36;;;;;;;4.90;1.77;;;;;;;-0.06;100.00;100965.66;10572157;28;20494;-74
2022/11/17 06:23:38;;;;;;;1.73;1.00;;;;;;;-0.04;100.00;100964.41;10585872;28;20036;-75
2022/11/17 06:28:42;;;;;;;3.72;1.55;;;;;;;-0.01;100.00;100968.56;10592222;27;20059;-74
2022/11/17 06:33:45;;;;;;;2.58;1.23;;;;;;;0.02;100.00;100965.50;10567829;28;20046;-75
2022/11/17 06:38:48;;;;;;;2.47;1.25;;;;;;;0.06;100.00;100974.00;10554164;28;20035;-72
2022/11/17 06:43:50;;;;;;;1.77;1.52;;;;;;;0.10;100.00;100965.28;10590129;28;20047;-72
2022/11/17 06:48:53;;;;;;;2.88;1.23;;;;;;;0.11;100.00;100971.50;10595548;28;20044;-74
2022/11/17 06:53:55;;;;;;;0.95;0.70;;;;;;;0.12;100.00;100967.78;10558223;28;20532;-73
2022/11/17 06:58:57;;;;;;;1.60;1.17;;;;;;;0.12;100.00;100956.97;10571242;28;20425;-74
2022/11/17 07:04:00;;;;;;;6.72;1.65;;;;;;;0.12;100.00;100957.81;10588313;28;20051;-73
2022/11/17 07:09:03;;;;;;;1.60;1.10;;;;;;;0.15;100.00;100978.97;10613518;28;20062;-75
2022/11/17 07:14:05;;;;;;;2.15;1.05;;;;;;;0.16;100.00;100975.25;10574348;28;20039;-74
2022/11/17 07:19:09;;;;;;;4.30;1.88;;;;;;;0.13;100.00;100986.47;10613421;28;20047;-74
2022/11/17 07:24:11;;;;;;;3.67;1.35;;;;;;;0.08;100.00;100969.22;10592373;28;20525;-74
2022/11/17 07:29:13;;;;;;;3.85;1.45;;;;;;;-0.05;100.00;100978.94;10582902;28;20510;-74
2022/11/17 07:34:16;;;;;;;2.63;1.42;;;;;;;-0.18;100.00;100980.75;10569421;28;20044;-74
2022/11/17 07:39:21;;;;;;;3.47;1.27;;;;;;;-0.18;100.00;100992.38;10587794;28;20517;-74
2022/11/17 07:44:28;;;;;;;0.80;0.63;;;;;;;-0.18;100.00;100984.28;10590913;28;20046;-74
2022/11/17 07:49:30;;;;;;;3.55;1.00;;;;;;;-0.17;100.00;100982.44;10593629;28;20044;-74
2022/11/17 07:54:36;;;;;;;2.35;0.80;;;;;;;-0.09;100.00;100984.94;10610397;28;20039;-74
2022/11/17 08:00:03;;;;;;;3.30;0.75;;;;;;;0.54;100.00;100993.59;10560634;28;20525;-74
2022/11/17 08:05:16;;;;;;;3.83;1.27;;;;;;;1.36;100.00;101000.34;10570463;28;20433;-75
2022/11/17 08:10:19;;;;;;;0.43;0.43;;;;;;;1.13;100.00;100998.13;10556079;28;20035;-74
2022/11/17 08:15:21;;;;;;;3.20;0.93;;;;;;;0.76;100.00;101022.06;10593449;28;20043;-75
2022/11/17 08:20:25;;;;;;;3.22;1.15;;;;;;;0.55;100.00;101014.16;10589519;28;20044;-75
2022/11/17 08:25:27;;;;;;;2.35;1.10;;;;;;;0.50;100.00;101008.53;10569237;28;20040;-76
2022/11/17 08:30:32;;;;;;;1.13;0.70;;;;;;;0.42;99.78;101014.97;10556534;28;20047;-75
2022/11/17 08:35:34;;;;;;;1.48;0.65;;;;;;;0.37;99.13;101013.94;10610143;28;20040;-74
2022/11/17 08:40:37;;;;;;;3.35;1.00;;;;;;;0.37;99.34;101008.53;10588671;28;20040;-74
2022/11/17 08:45:41;;;;;;;5.13;1.05;;;;;;;0.38;99.04;101015.59;10576431;28;20066;-73
2022/11/17 08:50:44;;;;;;;1.17;0.75;;;;;;;0.35;98.96;101016.84;10576475;28;20510;-74
2022/11/17 08:55:50;;;;;;;1.58;1.25;;;;;;;0.36;98.14;101012.25;10595999;28;20046;-74
2022/11/17 09:00:52;;;;;;;2.20;0.63;;;;;;;0.36;97.81;101014.97;10617982;27;20300;-75
2022/11/17 09:05:55;;;;;;;2.13;0.90;;;;;;;0.35;96.84;101026.75;10613363;28;20436;-75
2022/11/17 09:10:58;;;;;;;0.77;0.50;;;;;;;0.30;95.91;101020.13;10598399;27;20047;-74
2022/11/17 09:16:28;;;;;;;2.13;0.77;;;;;;;0.37;94.03;101020.16;10574891;28;20036;-74
2022/11/17 09:21:32;;;;;;;0.93;0.80;;;;;;;0.51;92.89;101020.97;10634185;27;20044;-74
2022/11/17 09:27:01;;;;;;;1.13;0.50;;;;;;;0.56;92.55;101026.63;10584250;28;20534;-75
2022/11/17 09:32:04;;;;;;;0.85;0.50;;;;;;;0.54;92.52;101026.81;10556331;28;20040;-75
2022/11/17 09:37:10;;;;;;;2.00;0.25;;;;;;;0.50;92.23;101043.63;10605298;27;20035;-74
2022/11/17 09:42:21;;;;;;;0.55;0.50;;;;;;;0.42;92.64;101043.81;10589116;27;20039;-75
2022/11/17 09:47:41;;;;;;;0.40;0.40;;;;;;;0.40;91.27;101045.91;10574270;28;20040;-74
2022/11/17 09:52:55;;;;;;;0.65;0.50;;;;;;;0.38;92.11;101050.69;10577337;28;20039;-74
2022/11/17 09:58:18;;;;;;;1.58;0.60;;;;;;;0.36;92.72;101050.88;10598925;28;20035;-75
2022/11/17 10:03:25;;;;;;;1.45;0.60;;;;;;;0.36;91.90;101050.06;10596247;28;20048;-75
2022/11/17 10:08:57;;;;;;;2.53;0.60;;;;;;;0.27;91.42;101057.50;10605311;27;20058;-75
2022/11/17 10:14:11;;;;;;;0.73;0.43;;;;;;;0.29;90.73;101052.72;10563450;28;20040;-75
2022/11/17 10:19:15;;;;;;;0.25;0.10;;;;;;;0.17;90.12;101048.94;10600815;27;20036;-74
2022/11/17 10:24:45;;;;;;;0.15;0.15;;;;;;;0.17;90.11;101055.16;10561585;28;20094;-75
2022/11/17 10:30:10;;;;;;;0.15;0.15;;;;;;;0.18;89.58;101051.47;10559771;28;20445;-76
2022/11/17 10:35:23;;;;;;;1.27;0.30;;;;;;;0.12;90.06;101056.81;10574588;28;20052;-76
2022/11/17 10:40:31;;;;;;;0.40;0.40;;;;;;;0.05;90.14;101054.09;10625595;27;20067;-76
2022/11/17 10:45:34;;;;;;;0.68;0.40;;;;;;;0.06;88.92;101060.34;10600632;28;20039;-76
2022/11/17 10:50:36;;;;;;;0.40;0.40;;;;;;;0.09;88.64;101062.63;10596098;28;20052;-76
2022/11/17 10:55:39;;;;;;;1.55;0.60;;;;;;;0.09;87.31;101070.72;10553925;28;20052;-76
2022/11/17 11:00:42;;;;;;;1.60;0.60;;;;;;;0.04;87.66;101070.50;10587131;28;20039;-77
2022/11/17 11:06:18;;;;;;;0.88;0.40;;;;;;;0.05;87.21;101086.47;10601444;28;20078;-75
2022/11/17 11:11:30;;;;;;;0.90;0.47;;;;;;;-0.02;87.72;101088.31;10584739;28;20043;-76
2022/11/17 11:16:33;;;;;;;0.47;0.30;;;;;;;-0.14;86.82;101073.75;10588110;28;20612;-75
2022/11/17 11:21:45;;;;;;;1.33;0.50;;;;;;;-0.20;87.43;101093.41;10595639;28;20047;-76
2022/11/17 11:27:22;;;;;;;0.52;0.25;;;;;;;-0.21;86.88;101111.44;10629544;27;20051;-76
2022/11/17 11:32:55;;;;;;;0.57;0.57;;;;;;;-0.32;83.38;101145.22;10615122;28;20054;-77
2022/11/17 11:38:26;;;;;;;3.25;1.33;;;;;;;-0.35;82.88;101093.53;10596440;28;20039;-75
2022/11/17 11:43:54;;;;;;;1.63;0.20;;;;;;;-0.39;84.15;101120.06;10599022;28;20080;-78
2022/11/17 11:49:22;;;;;;;0.38;0.38;;;;;;;-0.43;83.93;101129.56;10565757;28;20410;-75
2022/11/17 11:54:46;;;;;;;0.98;0.60;;;;;;;-0.44;83.12;101136.00;10600059;28;20040;-75
2022/11/17 11:59:55;;;;;;;1.48;0.52;;;;;;;-0.44;81.63;101138.69;10539384;28;20419;-76
2022/11/17 12:05:22;;;;;;;1.50;0.45;;;;;;;-0.47;81.11;101128.31;10540991;28;20044;-74
2022/11/17 12:10:37;;;;;;;0.55;0.22;;;;;;;-0.46;81.48;101143.44;10573380;28;20048;-75
2022/11/17 12:15:43;;;;;;;0.38;0.17;;;;;;;-0.52;82.10;101136.16;10619886;27;20060;-75
2022/11/17 12:21:12;;;;;;;0.00;0.00;;;;;;;-0.48;81.35;101142.81;10620559;27;20044;-76
2022/11/17 12:26:41;;;;;;;0.38;0.38;;;;;;;-0.52;81.59;101149.63;10609664;28;20053;-76
2022/11/17 12:31:48;;;;;;;0.73;0.65;;;;;;;-0.62;81.97;101163.44;10611043;28;20039;-76
2022/11/17 12:37:17;;;;;;;0.35;0.20;;;;;;;-0.63;81.09;101164.47;10616018;28;20046;-76
2022/11/17 12:42:20;;;;;;;0.43;0.38;;;;;;;-0.66;80.86;101181.03;10604879;28;20046;-74
2022/11/17 12:47:38;;;;;;;0.10;0.10;;;;;;;-0.75;80.90;101170.56;10609127;27;20101;-75
2022/11/17 12:53:10;;;;;;;1.00;0.40;;;;;;;-0.79;80.28;101161.22;10600150;27;20524;-75
2022/11/17 12:58:46;;;;;;;0.40;0.40;;;;;;;-0.72;80.29;101180.97;10599164;27;20478;-80
2022/11/17 13:04:01;;;;;;;1.85;0.65;;;;;;;-0.77;80.49;101189.63;10573350;27;20036;-75
2022/11/17 13:09:06;;;;;;;0.57;0.40;;;;;;;-0.78;81.03;101197.91;10595886;28;20043;-74
2022/11/17 13:14:12;;;;;;;0.50;0.50;;;;;;;-0.76;81.22;101206.63;10603565;27;20437;-73
2022/11/17 13:19:40;;;;;;;1.15;0.60;;;;;;;-0.75;81.21;101211.81;10619510;27;20414;-74
2022/11/17 13:24:44;;;;;;;0.30;0.22;;;;;;;-0.83;81.58;101214.66;10596843;28;20446;-75
2022/11/17 13:29:47;;;;;;;0.10;0.10;;;;;;;-0.89;81.81;101217.28;10582160;28;20059;-75
2022/11/17 13:34:58;;;;;;;0.65;0.60;;;;;;;-0.99;82.96;101239.97;10593058;28;20051;-76
2022/11/17 13:40:18;;;;;;;1.17;0.47;;;;;;;-1.09;81.75;101235.91;10584852;28;20521;-74
2022/11/17 13:45:20;;;;;;;0.20;0.10;;;;;;;-1.11;81.83;101251.44;10590744;28;20051;-75
2022/11/17 13:50:25;;;;;;;0.85;0.50;;;;;;;-1.14;81.83;101260.75;10603622;27;20044;-75
2022/11/17 13:55:28;;;;;;;0.35;0.25;;;;;;;-1.19;80.41;101265.03;10623241;27;20409;-75
2022/11/17 14:00:31;;;;;;;0.60;0.60;;;;;;;-1.22;78.93;101291.28;10619566;27;20525;-75
2022/11/17 14:05:33;;;;;;;1.35;0.40;;;;;;;-1.24;78.16;101273.66;10590164;28;20062;-75
2022/11/17 14:10:37;;;;;;;1.10;0.60;;;;;;;-1.21;78.60;101265.22;10574175;27;20520;-75
2022/11/17 14:15:43;;;;;;;0.50;0.50;;;;;;;-1.16;78.33;101267.34;10606604;27;20044;-75
2022/11/17 14:20:45;;;;;;;0.95;0.70;;;;;;;-1.13;77.71;101275.88;10603038;27;20032;-76
2022/11/17 14:25:48;;;;;;;3.00;0.88;;;;;;;-1.13;77.15;101281.25;10582162;27;20043;-75
2022/11/17 14:30:53;;;;;;;0.50;0.50;;;;;;;-1.14;76.56;101276.91;10607694;27;20047;-75
2022/11/17 14:35:58;;;;;;;1.92;1.17;;;;;;;-1.14;76.84;101284.97;10589414;28;20043;-77
2022/11/17 14:41:00;;;;;;;1.17;0.73;;;;;;;-1.15;76.18;101286.00;10579381;28;20044;-76
2022/11/17 14:46:02;;;;;;;2.40;1.40;;;;;;;-1.12;75.59;101287.47;10557722;28;20051;-77
2022/11/17 14:51:07;;;;;;;4.63;1.50;;;;;;;-1.17;74.19;101290.75;10594566;28;20043;-76
2022/11/17 14:56:09;;;;;;;1.35;0.85;;;;;;;-1.18;74.74;101305.22;10598990;28;20125;-76
2022/11/17 15:01:17;;;;;;;4.88;1.38;;;;;;;-1.16;74.94;101305.03;10605505;28;20437;-75
2022/11/17 15:06:19;;;;;;;3.33;1.40;;;;;;;-1.18;75.14;101309.78;10557492;28;20047;-75
2022/11/17 15:11:23;;;;;;;4.57;1.77;;;;;;;-1.19;75.24;101295.47;10597750;28;20044;-76
2022/11/17 15:16:54;;;;;;;5.43;2.17;;;;;;;-1.17;75.96;101312.28;10595048;28;20353;-77
2022/11/17 15:21:57;;;;;;;4.28;1.67;;;;;;;-1.17;76.22;101327.59;10615566;28;20054;-77
2022/11/17 15:26:59;;;;;;;2.17;1.38;;;;;;;-1.20;76.49;101309.97;10598537;28;20062;-75
2022/11/17 15:32:06;;;;;;;3.17;1.90;;;;;;;-1.16;76.68;101334.66;10603645;28;20039;-76
2022/11/17 15:37:08;;;;;;;2.72;1.25;;;;;;;-1.16;76.41;101334.66;10602842;28;20414;-78
2022/11/17 15:42:10;;;;;;;5.10;2.40;;;;;;;-1.21;76.38;101340.63;10596614;28;20058;-77
2022/11/17 15:47:13;;;;;;;5.38;2.17;;;;;;;-1.24;76.93;101320.25;10586190;28;20050;-77
2022/11/17 15:52:19;;;;;;;1.55;1.00;;;;;;;-1.27;77.16;101334.09;10597788;28;20075;-77
2022/11/17 15:57:21;;;;;;;2.53;0.90;;;;;;;-1.28;76.78;101337.81;10619371;27;20059;-77
2022/11/17 16:02:23;;;;;;;4.15;2.47;;;;;;;-1.26;76.81;101333.06;10604276;28;20050;-78
2022/11/17 16:07:25;;;;;;;3.35;1.92;;;;;;;-1.24;77.33;101349.03;10625123;28;20048;-78
2022/11/17 16:12:28;;;;;;;2.95;1.88;;;;;;;-1.24;77.54;101349.03;10625526;28;20509;-79
2022/11/17 16:17:59;;;;;;;2.97;2.08;;;;;;;-1.30;77.25;101382.09;10592890;28;20044;-79
2022/11/17 16:23:02;;;;;;;4.22;2.30;;;;;;;-1.35;77.06;101363.81;10600349;28;20043;-77
2022/11/17 16:28:08;;;;;;;2.88;1.50;;;;;;;-1.35;77.21;101373.75;10606869;28;20056;-78
2022/11/17 16:33:13;;;;;;;3.00;1.63;;;;;;;-1.34;76.90;101387.03;10614474;28;20043;-77
2022/11/17 16:38:16;;;;;;;3.83;2.10;;;;;;;-1.36;76.81;101372.91;10602249;28;20078;-78
2022/11/17 16:43:22;;;;;;;3.22;1.95;;;;;;;-1.31;76.43;101375.88;10604176;28;20044;-78
2022/11/17 16:48:24;;;;;;;5.28;2.75;;;;;;;-1.33;76.48;101385.16;10611959;28;20054;-77
2022/11/17 16:53:57;;;;;;;6.20;2.50;;;;;;;-1.35;76.95;101398.81;10616663;28;20051;-78
2022/11/17 16:58:59;;;;;;;4.00;1.98;;;;;;;-1.36;76.94;101404.38;10586959;28;20447;-78
2022/11/17 17:04:07;;;;;;;2.90;1.35;;;;;;;-1.37;77.08;101397.34;10596202;28;20051;-79
2022/11/17 17:09:36;;;;;;;4.05;1.98;;;;;;;-1.32;77.33;101411.06;10600561;28;20052;-78
2022/11/17 17:14:43;;;;;;;1.27;0.82;;;;;;;-1.37;77.43;101389.25;10618832;27;20062;-77
2022/11/17 17:19:45;;;;;;;3.83;1.88;;;;;;;-1.38;75.71;101401.06;10602864;28;20058;-79
2022/11/17 17:24:48;;;;;;;2.15;1.75;;;;;;;-1.46;75.16;101409.19;10593151;28;20053;-79
2022/11/17 17:29:55;;;;;;;1.67;1.00;;;;;;;-1.47;75.10;101391.38;10546702;28;20061;-79
2022/11/17 17:34:57;;;;;;;3.65;2.00;;;;;;;-1.48;75.40;101411.22;10526151;28;20048;-79
2022/11/17 17:40:03;;;;;;;2.80;1.98;;;;;;;-1.52;74.82;101411.59;10514117;28;20055;-85
2022/11/17 17:45:06;;;;;;;3.20;2.28;;;;;;;-1.54;74.94;101405.56;10523390;28;20052;-77
2022/11/17 17:50:08;;;;;;;0.98;0.98;;;;;;;-1.49;74.88;101412.25;10532204;28;20052;-82
2022/11/17 17:55:10;;;;;;;1.90;1.05;;;;;;;-1.47;75.20;101412.91;10514940;28;20045;-78
2022/11/17 18:00:13;;;;;;;1.88;1.60;;;;;;;-1.48;75.66;101427.38;10532878;28;20041;-80
2022/11/17 18:05:15;;;;;;;2.47;1.20;;;;;;;-1.52;75.57;101426.91;10541802;28;20036;-79
2022/11/17 18:10:25;;;;;;;2.55;2.10;;;;;;;-1.57;76.24;101418.53;10534278;28;20062;-80
2022/11/17 18:15:27;;;;;;;3.20;1.80;;;;;;;-1.60;76.30;101424.28;10527092;28;20036;-80
2022/11/17 18:20:29;;;;;;;0.98;0.90;;;;;;;-1.62;77.12;101426.31;10540317;28;20032;-81
2022/11/17 18:25:32;;;;;;;2.88;2.03;;;;;;;-1.68;77.94;101433.28;10550615;28;20521;-80
2022/11/17 18:30:34;;;;;;;1.77;1.33;;;;;;;-1.72;78.38;101431.97;10556354;28;20054;-79
2022/11/17 18:35:39;;;;;;;2.80;1.48;;;;;;;-1.73;78.70;101435.69;10595967;28;20044;-80
2022/11/17 18:40:41;;;;;;;4.07;1.40;;;;;;;-1.73;79.56;101442.94;10599174;28;20043;-79
2022/11/17 18:45:44;;;;;;;1.10;1.00;;;;;;;-1.74;79.65;101439.38;10620307;27;20052;-81
2022/11/17 18:50:46;;;;;;;1.70;1.42;;;;;;;-1.74;79.70;101444.75;10608237;28;20530;-78
2022/11/17 18:55:48;;;;;;;1.70;1.30;;;;;;;-1.75;79.55;101443.06;10581935;28;20533;-78
2022/11/17 19:00:51;;;;;;;0.95;0.80;;;;;;;-1.75;78.67;101450.31;10601151;27;20051;-78
2022/11/17 19:05:54;;;;;;;1.42;0.90;;;;;;;-1.76;78.33;101451.34;10609423;28;20497;-76
2022/11/17 19:11:14;;;;;;;0.85;0.80;;;;;;;-1.77;78.17;101433.53;10595218;28;20176;-77
2022/11/17 19:16:19;;;;;;;1.00;0.80;;;;;;;-1.71;78.05;101443.56;10590471;28;20032;-76
2022/11/17 19:21:36;;;;;;;1.33;1.02;;;;;;;-1.72;78.03;101458.06;10585269;28;20272;-80
2022/11/17 19:26:38;;;;;;;0.85;0.80;;;;;;;-1.73;77.94;101449.13;10601819;28;20044;-75
2022/11/17 19:31:41;;;;;;;1.50;0.70;;;;;;;-1.69;77.57;101452.31;10605108;28;20410;-78
2022/11/17 19:36:44;;;;;;;2.00;0.60;;;;;;;-1.68;77.58;101441.34;10592657;28;20448;-76
2022/11/17 19:41:46;;;;;;;1.02;0.70;;;;;;;-1.68;77.30;101440.53;10604969;28;20042;-79
2022/11/17 19:46:49;;;;;;;0.98;0.85;;;;;;;-1.69;77.12;101450.44;10609317;28;20047;-85
2022/11/17 19:51:52;;;;;;;0.70;0.70;;;;;;;-1.69;77.10;101442.38;10609263;28;20051;-80
2022/11/17 19:56:55;;;;;;;0.93;0.50;;;;;;;-1.68;76.45;101440.53;10601725;28;20047;-78
2022/11/17 20:01:57;;;;;;;0.80;0.70;;;;;;;-1.73;76.16;101446.44;10614646;28;20036;-77
2022/11/17 20:07:00;;;;;;;1.02;0.85;;;;;;;-1.72;76.54;101442.75;10590953;28;20047;-78
2022/11/17 20:12:02;;;;;;;1.25;0.60;;;;;;;-1.72;75.71;101458.06;10607578;28;20051;-78
2022/11/17 20:17:16;;;;;;;0.93;0.70;;;;;;;-1.75;76.10;101450.31;10590157;28;20062;-78
2022/11/17 20:22:19;;;;;;;1.58;1.02;;;;;;;-1.73;76.49;101453.69;10569798;28;20055;-78
2022/11/17 20:27:21;;;;;;;3.05;0.82;;;;;;;-1.72;76.43;101448.13;10552202;28;20694;-77
2022/11/17 20:32:28;;;;;;;0.55;0.55;;;;;;;-1.71;75.56;101452.47;10598641;28;20036;-77
2022/11/17 20:37:31;;;;;;;1.25;0.82;;;;;;;-1.71;75.76;101448.97;10571913;28;20234;-91
2022/11/17 20:42:33;;;;;;;1.20;0.77;;;;;;;-1.70;75.88;101461.41;10606301;27;20416;-78
2022/11/17 20:47:36;;;;;;;2.13;0.70;;;;;;;-1.64;76.00;101455.28;10595539;28;20055;-74
2022/11/17 20:52:38;;;;;;;1.15;0.60;;;;;;;-1.66;75.29;101458.16;10617405;27;20509;-74
2022/11/17 20:57:41;;;;;;;0.75;0.70;;;;;;;-1.66;75.27;101451.94;10618888;27;20051;-75
2022/11/17 21:02:43;;;;;;;1.95;0.80;;;;;;;-1.66;74.12;101465.38;10615758;27;20039;-75
2022/11/17 21:07:45;;;;;;;1.40;0.73;;;;;;;-1.66;74.35;101468.06;10574996;28;20046;-73
2022/11/17 21:12:48;;;;;;;1.10;0.80;;;;;;;-1.66;73.78;101479.69;10610658;28;20101;-73
2022/11/17 21:23:11;;;;;;;0.70;0.60;;;;;;;-1.69;73.04;101466.59;10615323;28;20441;-74
2022/11/17 21:28:14;;;;;;;2.35;1.00;;;;;;;-1.69;73.71;101455.81;10580110;28;20048;-74
2022/11/17 21:33:16;;;;;;;0.90;0.70;;;;;;;-1.71;72.80;101463.25;10609015;27;20046;-73
2022/11/17 21:38:18;;;;;;;2.78;0.60;;;;;;;-1.72;72.27;101464.25;10610494;27;20042;-73
2022/11/17 21:43:20;;;;;;;0.73;0.60;;;;;;;-1.72;72.39;101458.06;10578914;27;20125;-74
2022/11/17 21:48:22;;;;;;;1.20;0.80;;;;;;;-1.75;72.92;101463.75;10610789;27;20036;-76
2022/11/17 21:53:26;;;;;;;1.08;0.68;;;;;;;-1.78;72.93;101458.75;10577030;28;20032;-73
2022/11/17 21:58:28;;;;;;;0.50;0.50;;;;;;;-1.85;72.46;101469.41;10597683;28;20047;-74
2022/11/17 22:03:30;;;;;;;0.70;0.47;;;;;;;-1.87;72.89;101474.97;10606353;28;20045;-72
2022/11/17 22:08:37;;;;;;;0.52;0.50;;;;;;;-1.86;72.95;101465.03;10618041;27;20418;-73
2022/11/17 22:13:39;;;;;;;0.28;0.25;;;;;;;-1.83;73.17;101462.00;10613456;27;20052;-74
2022/11/17 22:18:41;;;;;;;1.30;0.60;;;;;;;-1.80;72.88;101467.00;10596464;28;20055;-74
2022/11/17 22:23:43;;;;;;;0.52;0.40;;;;;;;-1.83;72.41;101467.38;10619561;27;20230;-74
2022/11/17 22:28:53;;;;;;;0.90;0.50;;;;;;;-1.84;72.86;101463.00;10626123;27;20048;-73
2022/11/17 22:33:55;;;;;;;0.30;0.30;;;;;;;-1.82;72.62;101475.25;10596612;28;20051;-74
2022/11/17 22:38:57;;;;;;;1.33;0.47;;;;;;;-1.91;71.74;101472.78;10611767;28;20062;-74
2022/11/17 22:43:59;;;;;;;0.80;0.60;;;;;;;-1.90;71.79;101480.72;10593418;27;20032;-73
2022/11/17 22:49:02;;;;;;;0.55;0.10;;;;;;;-1.84;72.82;101473.75;10597299;28;20040;-73
2022/11/17 22:54:05;;;;;;;0.40;0.40;;;;;;;-1.78;72.01;101480.28;10614334;28;20062;-74
2022/11/17 22:59:07;;;;;;;0.95;0.50;;;;;;;-1.85;72.01;101485.53;10590364;28;20040;-73
2022/11/17 23:04:10;;;;;;;0.80;0.50;;;;;;;-1.87;72.56;101482.19;10611233;27;20139;-73
2022/11/17 23:09:12;;;;;;;1.48;0.60;;;;;;;-1.93;72.29;101483.72;10588285;28;20048;-74
2022/11/17 23:19:45;;;;;;;1.23;0.35;;;;;;;-2.07;72.90;101481.84;10584742;28;20035;-74
2022/11/17 23:24:48;;;;;;;1.80;0.65;;;;;;;-2.06;72.81;101479.97;10601440;28;20062;-73
2022/11/17 23:29:50;;;;;;;0.60;0.60;;;;;;;-2.09;72.68;101483.00;10584268;28;20052;-73
2022/11/17 23:34:52;;;;;;;0.82;0.65;;;;;;;-2.13;72.85;101491.44;10587989;27;20047;-72
2022/11/17 23:39:55;;;;;;;0.70;0.60;;;;;;;-2.20;73.00;101482.41;10590409;27;20040;-72
2022/11/17 23:44:57;;;;;;;0.52;0.30;;;;;;;-2.25;72.89;101474.03;10610616;28;20035;-73
2022/11/17 23:49:59;;;;;;;0.57;0.50;;;;;;;-2.28;73.06;101478.91;10602270;28;20048;-72
2022/11/17 23:55:06;;;;;;;0.55;0.55;;;;;;;-2.36;73.38;101466.38;10608212;28;20066;-73
